Time;durP1;ratioP1;P1;durP2;ratioP2;P2;SDS_P1;SDS_P2;PMS_P1;PMS_P2;Temp;Humidity;BMP_temperature;BMP_pressure;BME280_temperature;BME280_humidity;BME280_pressure;Samples;Min_cycle;Max_cycle;Signal;HPM_P1;HPM_P2
2021/06/29 00:00:08;;;;;;;8.60;7.60;;;22.30;74.40;;;;;;5012903;28;20030;-91
2021/06/29 00:02:33;;;;;;;8.30;7.40;;;22.20;74.30;;;;;;5013041;28;20072;-92
2021/06/29 00:04:59;;;;;;;9.52;7.95;;;22.20;74.30;;;;;;5014703;28;20018;-93
2021/06/29 00:07:24;;;;;;;8.43;7.13;;;22.20;74.40;;;;;;5014407;28;20056;-93
2021/06/29 00:09:50;;;;;;;11.27;8.25;;;22.20;74.40;;;;;;5014247;28;20026;-91
2021/06/29 00:12:16;;;;;;;10.88;8.50;;;22.10;74.40;;;;;;5014284;28;20025;-91
2021/06/29 00:14:44;;;;;;;11.45;8.32;;;22.10;74.50;;;;;;5014380;28;20470;-89
2021/06/29 00:17:10;;;;;;;10.27;8.75;;;22.10;74.60;;;;;;5010751;28;20412;-93
2021/06/29 00:19:36;;;;;;;9.60;7.13;;;22.00;74.70;;;;;;5010556;28;20026;-89
2021/06/29 00:22:02;;;;;;;8.93;7.93;;;22.00;74.80;;;;;;5013454;28;20044;-91
2021/06/29 00:24:27;;;;;;;10.70;9.43;;;21.90;74.90;;;;;;5012057;28;20021;-90
2021/06/29 00:26:53;;;;;;;10.70;9.13;;;21.90;75.30;;;;;;5013551;28;20040;-90
2021/06/29 00:29:18;;;;;;;11.75;8.95;;;21.80;75.40;;;;;;5014192;28;20010;-91
2021/06/29 00:31:44;;;;;;;10.32;8.25;;;21.80;75.60;;;;;;5013143;28;20028;-90
2021/06/29 00:34:10;;;;;;;9.07;7.65;;;21.70;75.60;;;;;;5012254;28;20022;-90
2021/06/29 00:36:36;;;;;;;9.38;7.53;;;21.70;75.70;;;;;;5012905;28;20448;-88
2021/06/29 00:39:03;;;;;;;11.82;9.13;;;21.70;75.70;;;;;;5012660;28;20022;-90
2021/06/29 00:41:28;;;;;;;9.02;7.88;;;21.70;75.80;;;;;;5012994;28;20109;-90
2021/06/29 00:43:55;;;;;;;8.85;7.43;;;21.60;76.10;;;;;;5013323;28;20052;-92
2021/06/29 00:46:20;;;;;;;9.27;7.70;;;21.60;76.10;;;;;;5011926;28;20025;-92
2021/06/29 00:48:47;;;;;;;10.30;7.43;;;21.70;76.20;;;;;;5013770;28;20416;-91
2021/06/29 00:51:14;;;;;;;8.15;6.85;;;21.70;76.20;;;;;;5012641;28;20041;-91
2021/06/29 00:53:41;;;;;;;9.45;8.25;;;21.60;76.20;;;;;;5013756;28;20018;-93
2021/06/29 00:56:13;;;;;;;10.27;7.82;;;21.60;76.40;;;;;;5013641;28;20021;-92
2021/06/29 00:58:43;;;;;;;8.77;7.32;;;21.60;76.50;;;;;;5014045;28;20052;-93
2021/06/29 01:01:09;;;;;;;9.30;7.60;;;21.50;77.20;;;;;;5013668;28;20046;-92
2021/06/29 01:03:36;;;;;;;8.40;7.45;;;21.50;76.70;;;;;;5013236;28;20436;-91
2021/06/29 01:06:02;;;;;;;12.30;8.85;;;21.50;76.70;;;;;;5012237;28;20040;-90
2021/06/29 01:08:28;;;;;;;10.18;8.40;;;21.50;76.80;;;;;;5013181;28;20109;-90
2021/06/29 01:10:53;;;;;;;9.63;8.40;;;21.50;76.90;;;;;;5012588;28;20607;-91
2021/06/29 01:13:33;;;;;;;9.35;7.88;;;21.40;77.10;;;;;;5012327;28;20018;-90
2021/06/29 01:15:59;;;;;;;8.90;7.35;;;21.40;77.20;;;;;;5013034;28;20028;-90
2021/06/29 01:18:25;;;;;;;11.52;8.18;;;21.40;77.30;;;;;;5013076;28;20022;-90
2021/06/29 01:20:51;;;;;;;8.63;7.35;;;21.30;77.40;;;;;;5012357;28;20028;-89
2021/06/29 01:23:20;;;;;;;9.15;7.20;;;21.30;77.50;;;;;;5012214;28;20022;-89
2021/06/29 01:25:46;;;;;;;7.95;6.95;;;21.30;77.50;;;;;;5011622;28;20022;-92
2021/06/29 01:28:27;;;;;;;7.25;6.15;;;21.30;77.60;;;;;;5012892;28;20034;-92
2021/06/29 01:31:09;;;;;;;8.55;7.15;;;21.30;77.60;;;;;;5012613;28;20105;-90
2021/06/29 01:33:34;;;;;;;11.23;7.07;;;21.30;77.40;;;;;;5011034;28;20049;-90
2021/06/29 01:36:00;;;;;;;8.57;6.82;;;21.30;77.50;;;;;;5010609;28;20057;-90
2021/06/29 01:38:26;;;;;;;8.63;6.95;;;21.30;77.50;;;;;;5009262;28;20026;-90
2021/06/29 01:40:52;;;;;;;12.20;7.25;;;21.30;77.50;;;;;;5010542;28;20080;-90
2021/06/29 01:43:24;;;;;;;9.75;7.88;;;21.30;77.60;;;;;;5011056;28;20029;-88
2021/06/29 01:45:52;;;;;;;;;;;21.30;77.60;;;;;;5012168;28;20129;-87
2021/06/29 01:48:21;;;;;;;11.75;7.50;;;21.30;77.40;;;;;;5009958;28;19913;-88
2021/06/29 01:50:48;;;;;;;13.80;8.00;;;21.30;77.70;;;;;;5010217;28;20068;-89
2021/06/29 01:53:14;;;;;;;17.00;9.25;;;21.30;77.90;;;;;;5009793;28;20125;-88
2021/06/29 01:55:40;;;;;;;15.35;7.63;;;21.30;78.00;;;;;;5011742;28;20100;-89
2021/06/29 01:58:06;;;;;;;11.38;7.13;;;21.20;78.10;;;;;;5012109;28;20086;-89
2021/06/29 02:00:32;;;;;;;11.75;6.47;;;21.20;78.10;;;;;;5011897;28;20057;-89
2021/06/29 02:02:58;;;;;;;14.45;8.32;;;21.20;78.10;;;;;;5011887;28;20014;-90
2021/06/29 02:05:24;;;;;;;14.00;7.82;;;21.10;78.30;;;;;;5011250;28;20064;-89
2021/06/29 02:07:49;;;;;;;10.25;8.07;;;21.10;78.40;;;;;;5012131;28;20077;-89
2021/06/29 02:10:16;;;;;;;13.02;7.88;;;21.10;78.40;;;;;;5012082;28;20071;-90
2021/06/29 02:12:43;;;;;;;10.80;6.68;;;21.10;78.50;;;;;;5011698;28;20030;-89
2021/06/29 02:15:09;;;;;;;13.85;7.55;;;21.10;78.60;;;;;;5012181;28;20036;-90
2021/06/29 02:17:35;;;;;;;16.48;8.50;;;21.10;78.60;;;;;;5011609;28;20091;-88
2021/06/29 02:20:00;;;;;;;12.57;7.43;;;21.10;78.80;;;;;;5011663;28;20088;-89
2021/06/29 02:22:26;;;;;;;15.68;8.75;;;21.10;78.90;;;;;;5011592;28;20032;-90
2021/06/29 02:24:52;;;;;;;10.27;6.82;;;21.10;79.00;;;;;;5010676;28;20362;-89
2021/06/29 02:27:17;;;;;;;10.18;7.03;;;21.10;79.80;;;;;;5011875;28;20120;-90
2021/06/29 02:29:43;;;;;;;9.90;6.68;;;21.10;79.10;;;;;;5012169;28;20053;-89
2021/06/29 02:32:08;;;;;;;14.70;6.25;;;21.00;79.10;;;;;;5011614;28;20033;-90
2021/06/29 02:34:34;;;;;;;14.52;7.68;;;21.10;79.10;;;;;;5010592;28;20133;-88
2021/06/29 02:36:59;;;;;;;9.93;5.70;;;21.10;79.10;;;;;;5011937;28;20532;-90
2021/06/29 02:39:25;;;;;;;10.05;5.57;;;21.00;79.20;;;;;;5011902;28;20100;-90
2021/06/29 02:41:50;;;;;;;12.93;6.15;;;21.10;79.20;;;;;;5011446;28;20108;-89
2021/06/29 02:44:16;;;;;;;9.52;5.68;;;21.10;79.10;;;;;;5011920;28;20025;-90
2021/06/29 02:46:42;;;;;;;8.68;5.90;;;21.10;79.10;;;;;;5011065;28;20026;-92
2021/06/29 02:49:07;;;;;;;14.65;6.15;;;21.10;79.10;;;;;;5007987;28;20037;-91
2021/06/29 02:51:35;;;;;;;14.85;7.07;;;21.10;79.10;;;;;;5014939;28;20022;-90
2021/06/29 02:54:00;;;;;;;11.13;5.88;;;21.00;79.10;;;;;;5012890;28;20465;-89
2021/06/29 02:56:39;;;;;;;16.02;7.32;;;21.00;79.20;;;;;;5014296;28;20092;-90
2021/06/29 02:59:10;;;;;;;12.05;6.72;;;21.00;79.40;;;;;;5012911;28;20592;-90
2021/06/29 03:01:36;;;;;;;10.98;8.27;;;20.90;79.60;;;;;;5013063;28;20054;-90
2021/06/29 03:04:02;;;;;;;11.23;6.20;;;20.80;80.10;;;;;;5014489;28;20033;-89
2021/06/29 03:06:28;;;;;;;10.75;6.68;;;20.80;80.20;;;;;;5013849;28;20030;-89
2021/06/29 03:08:54;;;;;;;12.35;7.10;;;20.80;80.30;;;;;;5014144;28;20041;-89
2021/06/29 03:11:19;;;;;;;15.02;6.18;;;20.80;80.30;;;;;;5013078;28;20018;-89
2021/06/29 03:13:45;;;;;;;8.32;5.85;;;20.90;80.20;;;;;;5013585;28;20018;-90
2021/06/29 03:16:11;;;;;;;11.65;6.40;;;20.90;80.70;;;;;;5014221;28;20045;-91
2021/06/29 03:18:37;;;;;;;10.77;5.65;;;20.90;80.00;;;;;;5012583;28;20018;-89
2021/06/29 03:21:02;;;;;;;9.82;6.18;;;20.90;80.00;;;;;;5013753;28;20404;-88
2021/06/29 03:23:28;;;;;;;7.20;5.05;;;20.90;80.00;;;;;;5014044;28;20021;-91
2021/06/29 03:25:54;;;;;;;8.48;6.35;;;21.00;80.00;;;;;;5014272;28;20018;-91
2021/06/29 03:28:19;;;;;;;7.80;5.20;;;21.00;79.90;;;;;;5015114;28;20559;-91
2021/06/29 03:30:45;;;;;;;9.48;5.85;;;21.00;79.90;;;;;;5013922;28;20117;-92
2021/06/29 03:33:11;;;;;;;9.95;5.22;;;21.10;79.90;;;;;;5013769;28;20080;-90
2021/06/29 03:35:36;;;;;;;6.22;5.03;;;21.00;79.80;;;;;;5015772;28;20080;-90
2021/06/29 03:38:02;;;;;;;6.32;5.57;;;21.00;79.80;;;;;;5013945;28;20032;-90
2021/06/29 03:40:28;;;;;;;8.18;6.07;;;21.10;79.80;;;;;;5015389;28;20121;-91
2021/06/29 03:42:54;;;;;;;12.05;5.78;;;21.10;79.80;;;;;;5015385;28;20081;-88
2021/06/29 03:45:19;;;;;;;6.28;5.45;;;21.10;79.80;;;;;;5014532;28;20033;-90
2021/06/29 03:47:45;;;;;;;6.38;5.70;;;21.10;79.70;;;;;;5012969;28;20513;-91
2021/06/29 03:50:11;;;;;;;9.43;6.25;;;21.10;79.60;;;;;;5014379;28;20497;-90
2021/06/29 03:52:37;;;;;;;9.40;6.00;;;21.10;80.30;;;;;;5013717;28;20123;-90
2021/06/29 03:55:05;;;;;;;8.38;6.28;;;21.10;79.60;;;;;;5012633;28;20018;-90
2021/06/29 03:57:31;;;;;;;6.78;5.57;;;21.20;79.70;;;;;;5012831;28;20493;-90
2021/06/29 03:59:57;;;;;;;9.25;6.30;;;21.20;79.70;;;;;;5013090;28;20022;-91
2021/06/29 04:02:23;;;;;;;7.60;6.10;;;21.20;79.80;;;;;;5012551;28;20026;-91
2021/06/29 04:04:49;;;;;;;7.72;6.40;;;21.20;79.80;;;;;;5013962;28;20018;-90
2021/06/29 04:07:14;;;;;;;7.80;6.18;;;21.30;79.80;;;;;;5012665;28;20113;-90
2021/06/29 04:09:40;;;;;;;7.60;6.38;;;21.30;79.80;;;;;;5013572;28;20021;-90
2021/06/29 04:12:07;;;;;;;8.40;7.30;;;21.30;79.60;;;;;;5013571;28;20218;-90
2021/06/29 04:14:32;;;;;;;9.40;6.82;;;21.40;79.50;;;;;;5012515;28;20018;-90
2021/06/29 04:16:58;;;;;;;8.20;6.18;;;21.40;79.40;;;;;;5014337;28;20464;-91
2021/06/29 04:19:24;;;;;;;8.05;5.68;;;21.40;79.30;;;;;;5012459;28;20121;-91
2021/06/29 04:21:49;;;;;;;9.50;6.85;;;21.40;79.40;;;;;;5013804;28;20022;-91
2021/06/29 04:24:15;;;;;;;8.32;6.18;;;21.40;79.30;;;;;;5012551;28;20419;-91
2021/06/29 04:26:41;;;;;;;11.43;5.90;;;21.40;79.20;;;;;;5013537;28;20038;-91
2021/06/29 04:29:06;;;;;;;13.18;7.13;;;21.40;79.20;;;;;;5013847;28;20058;-91
2021/06/29 04:31:32;;;;;;;9.27;6.47;;;21.40;79.20;;;;;;5012943;28;20037;-91
2021/06/29 04:33:57;;;;;;;10.88;6.80;;;21.50;79.30;;;;;;5013377;28;20018;-90
2021/06/29 04:36:23;;;;;;;11.20;5.97;;;21.40;79.20;;;;;;5013579;28;20574;-90
2021/06/29 04:38:49;;;;;;;8.75;6.30;;;21.50;79.30;;;;;;5012010;28;20105;-90
2021/06/29 04:41:14;;;;;;;9.00;6.80;;;21.50;79.20;;;;;;5011962;28;20061;-91
2021/06/29 04:43:43;;;;;;;8.50;6.63;;;21.50;79.20;;;;;;5010833;28;20117;-88
2021/06/29 04:46:09;;;;;;;7.30;5.95;;;21.60;79.20;;;;;;5011905;28;20040;-88
2021/06/29 04:48:37;;;;;;;8.50;6.35;;;21.60;79.00;;;;;;5012550;28;20440;-91
2021/06/29 04:51:03;;;;;;;6.68;5.60;;;21.60;78.90;;;;;;5011886;28;20025;-90
2021/06/29 04:53:29;;;;;;;8.32;5.60;;;21.60;78.90;;;;;;5011340;28;20030;-89
2021/06/29 04:55:55;;;;;;;6.97;5.95;;;21.70;79.00;;;;;;5011159;28;20080;-90
2021/06/29 04:58:20;;;;;;;6.55;5.85;;;21.60;78.80;;;;;;5011825;28;20014;-88
2021/06/29 05:00:49;;;;;;;9.20;6.38;;;21.60;78.90;;;;;;5009468;28;20129;-90
2021/06/29 05:03:14;;;;;;;8.70;5.75;;;21.60;79.00;;;;;;5010540;28;20116;-91
2021/06/29 05:05:40;;;;;;;7.88;5.43;;;21.70;79.10;;;;;;5012658;28;20101;-90
2021/06/29 05:08:07;;;;;;;7.63;6.07;;;21.70;79.10;;;;;;5011194;28;20721;-89
2021/06/29 05:10:34;;;;;;;10.52;5.80;;;21.70;79.10;;;;;;5008371;28;20017;-90
2021/06/29 05:13:00;;;;;;;7.28;5.38;;;21.70;79.10;;;;;;5010403;28;20061;-88
2021/06/29 05:15:26;;;;;;;7.05;5.53;;;21.70;79.10;;;;;;5010791;28;20029;-88
2021/06/29 05:17:51;;;;;;;7.80;6.20;;;21.70;79.20;;;;;;5014476;28;20022;-90
2021/06/29 05:20:17;;;;;;;8.45;6.22;;;21.80;79.10;;;;;;5011064;28;20053;-90
2021/06/29 05:22:43;;;;;;;5.97;5.00;;;21.80;79.20;;;;;;5013364;28;20086;-90
2021/06/29 05:25:09;;;;;;;6.85;6.05;;;21.80;79.10;;;;;;5012316;28;20037;-90
2021/06/29 05:27:39;;;;;;;5.82;4.95;;;21.80;79.00;;;;;;5012254;28;20056;-90
2021/06/29 05:30:07;;;;;;;5.50;4.82;;;21.80;79.00;;;;;;5012327;28;20401;-92
2021/06/29 05:32:32;;;;;;;6.03;5.13;;;21.90;79.00;;;;;;5012562;28;20042;-91
2021/06/29 05:34:58;;;;;;;6.40;5.15;;;21.90;78.90;;;;;;5013362;28;20026;-92
2021/06/29 05:37:24;;;;;;;7.55;5.85;;;22.00;78.70;;;;;;5011856;28;20061;-91
2021/06/29 05:39:49;;;;;;;5.82;4.97;;;22.00;78.60;;;;;;5012133;28;20075;-91
2021/06/29 05:42:15;;;;;;;7.85;5.78;;;22.00;78.70;;;;;;5012944;28;20025;-90
2021/06/29 05:44:40;;;;;;;6.65;5.28;;;22.00;79.30;;;;;;5013217;28;20040;-91
2021/06/29 05:47:09;;;;;;;6.18;5.20;;;22.00;78.70;;;;;;5027196;28;20499;-89
2021/06/29 05:49:35;;;;;;;6.88;5.20;;;22.00;78.70;;;;;;5030333;28;20017;-91
2021/06/29 05:52:01;;;;;;;6.85;5.38;;;22.00;79.40;;;;;;5031423;28;20384;-91
2021/06/29 05:54:26;;;;;;;5.90;4.95;;;22.10;78.80;;;;;;5007376;28;20025;-88
2021/06/29 05:56:52;;;;;;;6.93;5.70;;;22.10;78.70;;;;;;5011665;28;20030;-94
2021/06/29 05:59:18;;;;;;;5.95;5.15;;;22.10;78.60;;;;;;5012130;28;20029;-92
2021/06/29 06:01:44;;;;;;;6.47;5.47;;;22.10;78.50;;;;;;5010997;28;20074;-93
2021/06/29 06:04:10;;;;;;;6.20;5.38;;;22.10;78.50;;;;;;5030278;28;20026;-95
2021/06/29 06:06:35;;;;;;;6.85;5.85;;;22.10;78.50;;;;;;5037510;28;20677;-96
2021/06/29 06:09:28;;;;;;;9.63;7.65;;;22.20;78.50;;;;;;5025218;28;20066;-96
2021/06/29 06:11:54;;;;;;;7.78;6.57;;;22.20;78.60;;;;;;5020439;28;20060;-95
2021/06/29 06:14:26;;;;;;;7.47;6.25;;;22.20;78.60;;;;;;5027262;28;20070;-95
2021/06/29 06:19:29;;;;;;;7.35;6.50;;;22.40;78.20;;;;;;5281906;22;20050;-96
2021/06/29 06:21:54;;;;;;;7.50;6.43;;;22.50;77.90;;;;;;5117084;22;20442;-94
2021/06/29 06:24:21;;;;;;;6.90;5.80;;;22.60;77.70;;;;;;5038210;28;20052;-94
2021/06/29 06:26:46;;;;;;;7.10;5.03;;;22.70;77.60;;;;;;5045673;28;20061;-95
2021/06/29 06:29:12;;;;;;;6.70;5.82;;;22.80;77.30;;;;;;5050111;28;20028;-96
2021/06/29 06:31:38;;;;;;;9.43;6.35;;;22.90;77.00;;;;;;5035126;28;20022;-96
2021/06/29 06:34:09;;;;;;;6.18;4.80;;;22.90;76.80;;;;;;5022985;28;20022;-95
2021/06/29 06:36:35;;;;;;;8.32;5.97;;;22.90;76.60;;;;;;5036285;28;20049;-96
2021/06/29 06:39:01;;;;;;;8.27;6.80;;;22.90;76.60;;;;;;5030395;28;20111;-96
2021/06/29 06:41:26;;;;;;;10.25;8.07;;;22.90;77.40;;;;;;5030646;28;20024;-95
2021/06/29 06:43:52;;;;;;;9.85;7.93;;;23.00;76.70;;;;;;5033058;28;20083;-96
2021/06/29 06:46:18;;;;;;;10.18;7.93;;;23.00;76.60;;;;;;5027430;28;20080;-96
2021/06/29 06:48:44;;;;;;;8.65;7.10;;;22.90;76.60;;;;;;5035400;28;20088;-96
2021/06/29 06:51:10;;;;;;;7.82;6.53;;;22.90;76.60;;;;;;5035301;28;20022;-96
2021/06/29 06:53:36;;;;;;;5.72;4.75;;;22.90;76.70;;;;;;5034158;28;20072;-96
2021/06/29 06:56:03;;;;;;;8.40;7.25;;;22.90;76.70;;;;;;5034749;28;20534;-96
2021/06/29 06:58:28;;;;;;;13.10;10.63;;;22.80;76.80;;;;;;5037468;28;20014;-95
2021/06/29 07:00:54;;;;;;;9.80;7.60;;;22.90;76.80;;;;;;5034178;28;20561;-92
2021/06/29 07:03:21;;;;;;;9.15;7.78;;;22.80;76.70;;;;;;5035502;28;20030;-93
2021/06/29 07:05:46;;;;;;;10.55;8.68;;;22.90;77.40;;;;;;5034340;28;20021;-94
2021/06/29 07:08:12;;;;;;;10.35;7.47;;;22.90;76.70;;;;;;5034053;28;20384;-94
2021/06/29 07:10:38;;;;;;;11.05;9.07;;;22.90;76.70;;;;;;5035430;28;20087;-94
2021/06/29 07:13:06;;;;;;;10.77;8.75;;;22.90;76.50;;;;;;5034598;28;20052;-94
2021/06/29 07:15:36;;;;;;;10.73;8.73;;;22.90;76.50;;;;;;5034916;28;20037;-94
2021/06/29 07:18:02;;;;;;;10.00;7.68;;;22.90;76.60;;;;;;5032329;28;20017;-92
2021/06/29 07:20:27;;;;;;;8.75;7.10;;;22.80;76.50;;;;;;5036074;28;20021;-96
2021/06/29 07:22:53;;;;;;;9.77;8.05;;;22.80;76.60;;;;;;5031830;28;20044;-93
2021/06/29 07:25:20;;;;;;;11.57;9.27;;;22.80;76.50;;;;;;5037236;28;20021;-94
2021/06/29 07:27:46;;;;;;;9.90;7.57;;;22.70;76.50;;;;;;5035421;28;20025;-94
2021/06/29 07:30:12;;;;;;;9.88;7.25;;;22.70;76.60;;;;;;5027069;28;20114;-93
2021/06/29 07:32:41;;;;;;;9.35;7.47;;;22.70;76.50;;;;;;5026627;28;20492;-91
2021/06/29 07:35:08;;;;;;;10.88;8.43;;;22.60;76.60;;;;;;5028755;28;20624;-94
2021/06/29 07:37:36;;;;;;;11.13;7.90;;;22.50;76.70;;;;;;5034579;28;20033;-93
2021/06/29 07:40:06;;;;;;;6.75;5.90;;;22.60;76.70;;;;;;5032469;28;20017;-95
2021/06/29 07:42:34;;;;;;;9.95;7.93;;;22.60;76.60;;;;;;5028923;28;20026;-94
2021/06/29 07:45:00;;;;;;;11.40;9.10;;;22.70;76.40;;;;;;5033771;28;20100;-94
2021/06/29 07:47:25;;;;;;;10.13;8.45;;;22.70;76.30;;;;;;5032666;28;20171;-95
2021/06/29 07:49:51;;;;;;;8.38;7.25;;;22.80;76.20;;;;;;5026525;28;20460;-94
2021/06/29 07:52:16;;;;;;;10.30;8.38;;;22.90;76.00;;;;;;5030512;28;20044;-94
2021/06/29 07:54:42;;;;;;;8.57;7.47;;;23.00;76.10;;;;;;5037293;28;20110;-96
2021/06/29 07:57:08;;;;;;;10.98;8.95;;;23.10;75.80;;;;;;5040851;28;20021;-95
2021/06/29 07:59:38;;;;;;;11.02;8.50;;;23.10;75.50;;;;;;5032719;28;20061;-96
2021/06/29 08:02:04;;;;;;;9.13;7.38;;;23.00;75.50;;;;;;5033800;28;20013;-95
2021/06/29 08:04:29;;;;;;;8.10;7.05;;;22.90;75.80;;;;;;5031890;28;20021;-93
2021/06/29 08:06:58;;;;;;;19.77;17.67;;;22.80;76.00;;;;;;5021869;28;20520;-93
2021/06/29 08:09:26;;;;;;;11.00;9.82;;;22.80;76.10;;;;;;5024072;28;20022;-94
2021/06/29 08:11:54;;;;;;;9.48;8.48;;;22.70;76.20;;;;;;5027123;28;20064;-94
2021/06/29 08:14:20;;;;;;;9.27;7.35;;;22.70;76.30;;;;;;5028961;28;20028;-93
2021/06/29 08:16:46;;;;;;;8.65;7.60;;;22.70;76.30;;;;;;5028513;28;20029;-93
2021/06/29 08:19:12;;;;;;;9.10;7.43;;;22.60;76.20;;;;;;5029259;28;20028;-91
2021/06/29 08:21:38;;;;;;;10.23;8.25;;;22.60;76.40;;;;;;5026980;28;20044;-93
2021/06/29 08:24:04;;;;;;;9.80;7.32;;;22.60;76.50;;;;;;5032772;28;20029;-96
2021/06/29 08:26:30;;;;;;;7.20;6.10;;;22.70;76.30;;;;;;5029696;28;20030;-95
2021/06/29 08:28:56;;;;;;;10.95;9.15;;;22.70;76.30;;;;;;5032234;28;20082;-93
2021/06/29 08:31:24;;;;;;;7.43;6.07;;;22.70;76.20;;;;;;5033977;28;20014;-94
2021/06/29 08:33:56;;;;;;;8.27;6.82;;;22.70;76.30;;;;;;5029344;28;20029;-95
2021/06/29 08:36:22;;;;;;;7.63;6.75;;;22.60;76.40;;;;;;5026183;28;20022;-93
2021/06/29 08:38:51;;;;;;;7.75;6.80;;;22.70;76.40;;;;;;5017087;28;20079;-96
2021/06/29 08:41:17;;;;;;;7.68;6.32;;;22.70;76.40;;;;;;5030089;28;20464;-94
2021/06/29 08:43:50;;;;;;;7.45;5.93;;;22.70;76.40;;;;;;5101655;22;20038;-93
2021/06/29 08:46:24;;;;;;;6.47;5.43;;;22.60;76.30;;;;;;5020385;28;20412;-96
2021/06/29 08:48:50;;;;;;;8.82;7.50;;;22.70;76.40;;;;;;5035649;28;20025;-94
2021/06/29 08:51:20;;;;;;;11.45;9.20;;;22.60;76.50;;;;;;5032652;28;20021;-95
2021/06/29 08:53:46;;;;;;;9.23;8.30;;;22.60;76.50;;;;;;5013655;28;20060;-96
2021/06/29 08:56:20;;;;;;;7.85;6.40;;;22.60;76.50;;;;;;5033459;28;20022;-96
2021/06/29 08:58:46;;;;;;;11.82;9.52;;;22.60;76.50;;;;;;5031364;28;20030;-95
2021/06/29 09:01:15;;;;;;;11.80;9.88;;;22.40;76.40;;;;;;5025598;28;20022;-96
2021/06/29 09:03:44;;;;;;;10.77;8.10;;;22.30;76.60;;;;;;5029684;28;20017;-92
2021/06/29 09:06:09;;;;;;;11.43;9.70;;;22.30;77.50;;;;;;5030949;28;20021;-92
2021/06/29 09:08:40;;;;;;;13.52;10.80;;;22.20;76.80;;;;;;5020414;28;20044;-95
2021/06/29 09:11:18;;;;;;;11.50;10.30;;;22.30;76.80;;;;;;5035150;28;20112;-96
2021/06/29 09:14:10;;;;;;;11.32;9.50;;;22.20;76.90;;;;;;5028235;28;20060;-96
2021/06/29 09:16:37;;;;;;;9.97;8.43;;;22.10;76.90;;;;;;5043124;28;20444;-96
2021/06/29 09:19:04;;;;;;;12.48;9.48;;;22.10;77.00;;;;;;5046061;28;20065;-96
2021/06/29 09:21:36;;;;;;;10.95;9.43;;;22.10;77.00;;;;;;5024285;28;20057;-92
2021/06/29 09:24:01;;;;;;;8.65;7.45;;;22.10;77.00;;;;;;5029373;28;20053;-92
2021/06/29 09:26:27;;;;;;;8.13;6.88;;;22.20;76.90;;;;;;5032423;28;20137;-93
2021/06/29 09:28:58;;;;;;;10.23;8.73;;;22.20;76.90;;;;;;5032369;28;20069;-96
2021/06/29 09:31:27;;;;;;;9.93;8.85;;;22.20;76.80;;;;;;5032313;28;20544;-94
2021/06/29 09:34:04;;;;;;;12.13;9.57;;;22.20;76.70;;;;;;5031675;28;20033;-94
2021/06/29 09:36:34;;;;;;;9.23;7.78;;;22.10;76.80;;;;;;5031289;28;20032;-93
2021/06/29 09:39:06;;;;;;;9.75;8.38;;;22.20;76.90;;;;;;5032393;28;20025;-93
2021/06/29 09:41:35;;;;;;;13.23;10.80;;;22.30;76.80;;;;;;5012400;28;20325;-93
2021/06/29 09:44:13;;;;;;;12.23;10.20;;;22.30;76.70;;;;;;5028854;28;20029;-96
2021/06/29 09:46:41;;;;;;;12.75;9.68;;;22.40;76.70;;;;;;5023284;28;20034;-94
2021/06/29 09:49:14;;;;;;;10.70;9.43;;;22.50;76.50;;;;;;5028540;28;20029;-96
2021/06/29 09:51:45;;;;;;;13.18;11.32;;;22.70;76.20;;;;;;5029810;28;20013;-93
2021/06/29 09:54:11;;;;;;;11.68;10.05;;;22.80;75.90;;;;;;5030763;28;20117;-94
2021/06/29 09:56:41;;;;;;;13.05;11.52;;;23.00;75.90;;;;;;5034690;28;20055;-93
2021/06/29 09:59:15;;;;;;;12.85;10.43;;;23.10;75.60;;;;;;5035763;28;20026;-92
2021/06/29 10:01:41;;;;;;;12.38;10.60;;;23.20;75.50;;;;;;5024611;28;20472;-89
2021/06/29 10:04:09;;;;;;;11.50;9.95;;;23.20;75.20;;;;;;5034309;28;20029;-93
2021/06/29 10:06:37;;;;;;;12.27;10.93;;;23.40;74.90;;;;;;5037651;28;20021;-93
2021/06/29 10:09:09;;;;;;;10.93;9.45;;;23.50;74.40;;;;;;5036174;28;20037;-95
2021/06/29 10:11:40;;;;;;;11.20;9.38;;;23.70;74.30;;;;;;5035623;28;20557;-96
2021/06/29 10:14:13;;;;;;;10.55;8.85;;;23.70;74.10;;;;;;5033319;28;20021;-95
2021/06/29 10:16:45;;;;;;;7.47;6.28;;;23.80;73.90;;;;;;5036206;28;20024;-95
2021/06/29 10:21:44;;;;;;;9.93;8.95;;;24.00;73.60;;;;;;5037290;28;20076;-94
2021/06/29 10:24:11;;;;;;;11.38;9.98;;;23.90;73.40;;;;;;5036672;28;20026;-95
2021/06/29 10:26:39;;;;;;;10.20;8.80;;;24.00;73.70;;;;;;5034408;28;20022;-95
2021/06/29 10:29:08;;;;;;;8.15;7.30;;;23.90;73.10;;;;;;5042476;28;20077;-95
2021/06/29 10:31:40;;;;;;;12.55;10.95;;;23.90;73.00;;;;;;5044030;28;20033;-94
2021/06/29 10:34:08;;;;;;;7.97;7.05;;;23.90;72.90;;;;;;5045556;28;20025;-95
2021/06/29 10:36:56;;;;;;;9.77;8.23;;;23.90;73.00;;;;;;5044804;28;20060;-95
2021/06/29 10:39:27;;;;;;;8.73;7.25;;;24.00;73.00;;;;;;5040585;28;20025;-95
2021/06/29 10:42:03;;;;;;;6.63;5.93;;;24.10;72.70;;;;;;5036210;28;20491;-95
2021/06/29 10:44:36;;;;;;;8.13;7.30;;;24.10;72.50;;;;;;5035845;28;20032;-94
2021/06/29 10:47:02;;;;;;;9.25;8.35;;;24.20;72.40;;;;;;5023324;28;20026;-94
2021/06/29 10:49:39;;;;;;;9.70;8.20;;;24.20;72.30;;;;;;5032469;28;20029;-95
2021/06/29 10:52:08;;;;;;;9.52;8.25;;;24.20;72.20;;;;;;5034131;28;20014;-93
2021/06/29 10:54:48;;;;;;;7.85;7.05;;;24.20;72.10;;;;;;5033116;28;20116;-94
2021/06/29 10:57:25;;;;;;;9.57;8.57;;;24.10;72.10;;;;;;5032100;28;20021;-93
2021/06/29 10:59:55;;;;;;;9.77;8.77;;;24.10;72.10;;;;;;5034300;28;20018;-95
2021/06/29 11:02:35;;;;;;;9.32;8.32;;;24.00;72.30;;;;;;5040993;28;20044;-93
2021/06/29 11:05:07;;;;;;;9.05;8.07;;;23.90;72.50;;;;;;5045194;28;20010;-90
2021/06/29 11:07:32;;;;;;;;;;;23.80;72.60;;;;;;5029750;28;20180;-90
2021/06/29 11:10:06;;;;;;;10.52;9.18;;;23.60;72.70;;;;;;5034410;28;20001;-90
2021/06/29 11:12:34;;;;;;;8.43;7.10;;;23.40;73.00;;;;;;5025044;28;20029;-90
2021/06/29 11:15:07;;;;;;;7.07;6.38;;;23.30;73.30;;;;;;5029658;28;20082;-92
2021/06/29 11:17:50;;;;;;;6.13;5.53;;;23.30;73.40;;;;;;5023882;28;20071;-92
2021/06/29 11:20:18;;;;;;;8.48;7.45;;;23.40;73.40;;;;;;5033508;28;20022;-92
2021/06/29 11:22:56;;;;;;;10.30;8.50;;;23.40;73.50;;;;;;5032588;28;20025;-90
2021/06/29 11:25:45;;;;;;;9.00;8.10;;;23.40;73.40;;;;;;5030760;28;20083;-93
2021/06/29 11:28:21;;;;;;;9.63;8.70;;;23.60;73.40;;;;;;5032524;28;20079;-94
2021/06/29 11:30:58;;;;;;;8.95;7.70;;;23.80;72.90;;;;;;5017847;28;20026;-96
2021/06/29 11:33:54;;;;;;;8.23;7.43;;;23.90;72.70;;;;;;5035734;28;20032;-96
2021/06/29 11:36:29;;;;;;;9.38;8.48;;;24.20;72.20;;;;;;5030283;28;20036;-96
2021/06/29 11:39:14;;;;;;;8.93;7.65;;;24.40;71.80;;;;;;5034459;28;20018;-96
2021/06/29 11:41:42;;;;;;;8.88;7.97;;;24.40;71.20;;;;;;5024857;28;20033;-94
2021/06/29 11:44:08;;;;;;;6.80;6.10;;;24.20;71.00;;;;;;5033549;28;20033;-95
2021/06/29 11:47:13;;;;;;;8.32;7.18;;;24.20;71.00;;;;;;5038383;28;20028;-96
2021/06/29 11:50:12;;;;;;;8.07;6.72;;;24.20;70.80;;;;;;5039873;28;20026;-96
2021/06/29 11:52:43;;;;;;;6.65;5.65;;;24.40;70.10;;;;;;5158305;22;20030;-96
2021/06/29 12:00:23;;;;;;;5.88;4.55;;;25.30;68.60;;;;;;5021644;28;20080;-95
2021/06/29 12:02:52;;;;;;;6.47;5.25;;;25.60;68.10;;;;;;5466794;22;20042;-96
2021/06/29 12:05:33;;;;;;;6.60;5.05;;;25.70;67.60;;;;;;5333017;22;21111;-96
2021/06/29 12:11:03;;;;;;;7.75;5.53;;;25.90;66.80;;;;;;5113842;22;20408;-96
2021/06/29 12:13:36;;;;;;;5.18;4.68;;;25.70;66.00;;;;;;4996914;28;20022;-96
2021/06/29 12:16:17;;;;;;;6.70;5.57;;;25.50;66.20;;;;;;4999248;28;20049;-96
2021/06/29 12:18:54;;;;;;;6.82;5.32;;;25.40;66.20;;;;;;5267319;23;20106;-96
2021/06/29 12:23:57;;;;;;;5.57;4.63;;;25.20;65.90;;;;;;5288868;22;20062;-96
2021/06/29 12:31:49;;;;;;;6.82;5.50;;;25.00;66.70;;;;;;5578417;23;20049;-94
2021/06/29 12:34:23;;;;;;;5.90;4.70;;;25.00;66.60;;;;;;5027560;28;20022;-96
2021/06/29 12:37:27;;;;;;;5.28;4.78;;;25.10;66.20;;;;;;5024734;28;20022;-96
2021/06/29 12:40:18;;;;;;;6.10;5.38;;;25.30;65.70;;;;;;5126804;22;20096;-96
2021/06/29 12:42:44;;;;;;;5.75;5.15;;;25.50;65.30;;;;;;4984082;28;20038;-94
2021/06/29 12:45:13;;;;;;;5.55;4.95;;;25.70;65.20;;;;;;5001099;28;20077;-96
2021/06/29 12:47:42;;;;;;;6.25;5.22;;;25.90;65.10;;;;;;4996436;28;20029;-96
2021/06/29 13:13:33;;;;;;;5.05;4.53;;;26.70;61.20;;;;;;5408049;23;20060;-96
2021/06/29 13:41:13;;;;;;;6.15;5.07;;;26.20;61.30;;;;;;4946071;28;20047;-96
2021/06/29 13:43:42;;;;;;;4.68;3.72;;;26.30;61.00;;;;;;4948684;29;20023;-96
2021/06/29 14:17:08;;;;;;;6.72;6.03;;;26.70;58.50;;;;;;4915803;29;20052;-93
2021/06/29 14:19:40;;;;;;;6.97;6.25;;;26.60;58.30;;;;;;4914564;29;20032;-93
2021/06/29 14:22:15;;;;;;;6.28;5.47;;;26.40;58.40;;;;;;4894429;29;20032;-96
2021/06/29 14:24:44;;;;;;;5.70;5.10;;;26.20;58.80;;;;;;4896406;29;20092;-94
2021/06/29 14:27:10;;;;;;;4.45;3.80;;;26.00;59.40;;;;;;4888684;29;20045;-96
2021/06/29 14:29:37;;;;;;;4.75;4.15;;;26.00;59.60;;;;;;4889232;29;20029;-95